Aeroporto :
LOGIN :

Iscrizione | Disclaimer

   EN    FR    IT 

 










Sommario :    VFR   VFR Marginale   IFR   IFR Intensivo   IFR Molto Intensivo
Visibilità : 
Base nubi : 
>= 8 km
>= 3000ft
5 / 8 km
1000 / 3000 ft
1500m / 5 km
500 / 1000 ft
800 / 1500m
200 / 500 ft
< 800m
< 200 ft
Simboli :   Temporali  Nebbia  Neve Forte  Precipitazioni Forti  Vento > 20 kt
SIGMETs :   Varie  Temporali  Ghiacco  Turbolenza  Onda orograficha  Ceneri Vulcaniche







- Altitudine del aeroporto : 12 ft
- Codice IATA : BCN


LEBL - Barcelone

ULTIMO METAR :
  • 170900Z 33010KT 9999 FEW015 07/M02 Q1028 NOSIG

METARs OBSOLETI :
  • 170830Z 33009KT 9999 FEW014 BKN017 05/M03 Q1028 NOSIG
  • 170800Z 33010KT 9999 FEW014 BKN017 04/M03 Q1028 NOSIG
  • 170730Z 33011G22KT 300V020 9999 FEW016 04/M03 Q1028 NOSIG
  • 170700Z 33010KT 9999 SCT017 04/M03 Q1028 NOSIG
  • 170630Z 33010KT 9999 FEW012 BKN015 04/M03 Q1028 NOSIG

TAF TAF LEBL
Valido dal 17 a 06 ore il 18 a 06 ore UTC


170500Z 1706/1806 35007KT 9999 FEW020 TX16/1712Z TN05/1707Z
PROB40
TEMPO 1706/1707 3000 BR BKN004
PROB30
TEMPO 1706/1708 VRB03KT 0800 FG OVC004
BECMG 1710/1713 13006KT
BECMG 1718/1721 31008KT
Nessun NOTAM noto per questo aeroporto.



MetMap, La meteo Aeronautica in un colpo d'occhio ! - Copyright ORBIFLY Dicembre 2007 - Disclaimer

ORBIFLY MET'MAP TEAM :

Programmazione e sviluppo : Alexandra Zaïnal
Concezione e sviluppo : Baudouin d'Aumeries
Co-Programmazione e sviluppo : Marc-Olivier Méhu
Supporto tecnico e logistico : Manuel Goepfert
Aiuto per la traduzione : Arnaldo La Scala

Contatto : metmap@orbifly.com




FONTI E CREDITI :

   NOAA